Time;durP1;ratioP1;P1;durP2;ratioP2;P2;SDS_P1;SDS_P2;PMS_P1;PMS_P2;Temp;Humidity;BMP_temperature;BMP_pressure;BME280_temperature;BME280_humidity;BME280_pressure;Samples;Min_cycle;Max_cycle;Signal;HPM_P1;HPM_P2
2022/06/25 00:01:54;;;;;;;3.03;2.73;;;18.70;99.90;;;;;;5028443;28;20425;-40
2022/06/25 00:07:04;;;;;;;3.80;3.00;;;18.70;99.90;;;;;;5027702;28;20248;-41
2022/06/25 00:09:30;;;;;;;6.23;2.73;;;18.70;99.90;;;;;;5028012;28;20433;-41
2022/06/25 00:14:40;;;;;;;4.43;2.73;;;18.70;99.90;;;;;;5028356;28;20212;-40
2022/06/25 00:17:06;;;;;;;5.27;2.50;;;18.70;99.90;;;;;;5027612;28;20428;-40
2022/06/25 00:19:32;;;;;;;3.80;2.53;;;18.70;99.90;;;;;;5028557;28;20230;-42
2022/06/25 00:21:58;;;;;;;6.43;2.47;;;18.70;99.90;;;;;;5027805;28;20312;-40
2022/06/25 00:24:23;;;;;;;2.67;2.47;;;18.70;99.90;;;;;;5027974;28;20197;-43
2022/06/25 00:26:50;;;;;;;5.33;2.30;;;18.60;99.90;;;;;;5027678;28;20464;-42
2022/06/25 00:29:16;;;;;;;2.33;2.13;;;18.60;99.90;;;;;;5028284;28;20175;-40
2022/06/25 00:31:42;;;;;;;5.03;2.23;;;18.70;99.90;;;;;;5028146;28;20491;-40
2022/06/25 00:34:08;;;;;;;2.57;2.37;;;18.60;99.90;;;;;;5027842;28;20436;-43
2022/06/25 00:36:34;;;;;;;4.30;2.33;;;18.60;99.90;;;;;;5027326;28;20821;-40
2022/06/25 00:39:00;;;;;;;2.77;2.53;;;18.50;99.90;;;;;;5027866;28;20809;-40
2022/06/25 00:41:26;;;;;;;2.00;1.90;;;18.50;99.90;;;;;;5027836;28;20528;-41
2022/06/25 00:43:52;;;;;;;2.90;2.43;;;18.50;99.90;;;;;;5026184;28;20201;-40
2022/06/25 00:46:17;;;;;;;4.27;2.60;;;18.40;99.90;;;;;;5026366;28;20497;-41
2022/06/25 00:48:43;;;;;;;2.27;2.10;;;18.40;99.90;;;;;;5026717;28;20602;-40
2022/06/25 00:51:14;;;;;;;6.47;2.30;;;18.40;99.90;;;;;;5027764;28;20194;-40
2022/06/25 00:53:42;;;;;;;2.30;2.10;;;18.30;99.90;;;;;;5026423;28;20186;-40
2022/06/25 00:56:09;;;;;;;7.77;2.63;;;18.30;99.90;;;;;;5027890;28;20479;-40
2022/06/25 00:58:39;;;;;;;2.97;2.27;;;18.40;99.90;;;;;;5027032;28;20433;-41
2022/06/25 01:01:08;;;;;;;3.20;2.40;;;18.40;99.90;;;;;;5028054;28;20443;-41
2022/06/25 01:03:34;;;;;;;3.23;2.33;;;18.30;99.90;;;;;;5027659;28;20432;-40
2022/06/25 01:06:00;;;;;;;3.30;2.40;;;18.30;99.90;;;;;;5026061;28;20457;-40
2022/06/25 01:08:26;;;;;;;3.80;2.37;;;18.40;99.90;;;;;;5027178;28;20440;-41
2022/06/25 01:10:52;;;;;;;2.67;2.47;;;18.40;99.90;;;;;;5027729;28;21016;-40
2022/06/25 01:13:21;;;;;;;2.53;2.33;;;18.30;99.90;;;;;;5027924;28;20212;-40
2022/06/25 01:15:48;;;;;;;2.90;2.60;;;18.40;99.90;;;;;;5029347;28;20791;-44
2022/06/25 01:18:14;;;;;;;3.80;2.30;;;18.40;99.90;;;;;;5030289;28;20436;-42
2022/06/25 01:20:42;;;;;;;3.60;2.50;;;18.30;99.90;;;;;;5030985;28;20441;-40
2022/06/25 01:23:09;;;;;;;4.17;2.80;;;18.40;99.90;;;;;;5018344;28;20195;-41
2022/06/25 01:25:36;;;;;;;5.30;3.00;;;18.30;99.90;;;;;;5031217;28;20526;-41
2022/06/25 01:28:03;;;;;;;5.60;3.50;;;18.40;99.90;;;;;;5030432;28;20429;-41
2022/06/25 01:30:29;;;;;;;3.77;2.80;;;18.30;99.90;;;;;;5031520;28;20753;-40
2022/06/25 01:32:55;;;;;;;5.83;3.17;;;18.30;99.90;;;;;;5030605;28;20421;-43
2022/06/25 01:35:21;;;;;;;3.23;2.93;;;18.40;99.90;;;;;;5031183;28;20668;-41
2022/06/25 01:37:46;;;;;;;3.40;3.10;;;18.30;99.90;;;;;;5030272;28;20199;-42
2022/06/25 01:40:12;;;;;;;3.50;3.20;;;18.30;99.90;;;;;;5030854;28;20429;-40
2022/06/25 01:45:22;;;;;;;3.63;2.90;;;18.30;99.90;;;;;;5029582;28;20190;-44
2022/06/25 01:47:48;;;;;;;3.00;2.80;;;18.30;99.90;;;;;;5029892;28;20494;-43
2022/06/25 01:50:14;;;;;;;3.83;3.40;;;18.30;99.90;;;;;;5030550;28;20182;-41
2022/06/25 01:52:40;;;;;;;3.63;3.10;;;18.30;99.90;;;;;;5030703;28;20175;-41
2022/06/25 01:55:07;;;;;;;4.30;3.40;;;18.30;99.90;;;;;;5030447;28;20486;-42
2022/06/25 01:57:33;;;;;;;6.23;3.40;;;18.20;99.90;;;;;;5028581;28;20623;-39
2022/06/25 01:59:59;;;;;;;6.80;3.20;;;18.20;99.90;;;;;;5029988;28;20453;-40
2022/06/25 02:02:24;;;;;;;9.80;3.80;;;18.10;99.90;;;;;;5029249;28;20432;-41
2022/06/25 02:04:50;;;;;;;3.60;3.07;;;18.10;99.90;;;;;;5030061;28;20186;-42
2022/06/25 02:07:16;;;;;;;4.60;3.37;;;18.10;99.90;;;;;;5029950;28;20697;-40
2022/06/25 02:09:41;;;;;;;5.50;3.30;;;18.10;99.90;;;;;;5030205;28;20198;-43
2022/06/25 02:12:08;;;;;;;3.70;3.40;;;18.10;99.90;;;;;;5030386;28;20213;-40
2022/06/25 02:14:33;;;;;;;3.70;3.40;;;18.00;99.90;;;;;;5028738;28;20186;-40
2022/06/25 02:17:00;;;;;;;3.97;3.37;;;18.00;99.90;;;;;;5029582;28;20848;-41
2022/06/25 02:19:25;;;;;;;4.80;3.10;;;18.00;99.90;;;;;;5028772;28;20465;-40
2022/06/25 02:21:51;;;;;;;6.37;3.57;;;18.00;99.90;;;;;;5028649;28;20432;-40
2022/06/25 02:24:17;;;;;;;7.80;4.07;;;18.00;99.90;;;;;;5030362;28;20293;-40
2022/06/25 02:26:43;;;;;;;3.70;3.40;;;18.00;99.90;;;;;;5029116;28;20685;-41
2022/06/25 02:29:08;;;;;;;4.27;3.50;;;18.00;99.90;;;;;;5029621;28;20421;-41
2022/06/25 02:31:34;;;;;;;4.93;3.77;;;18.00;99.90;;;;;;5029929;28;20194;-42
2022/06/25 02:34:01;;;;;;;5.10;4.03;;;18.00;99.90;;;;;;5030020;28;20624;-41
2022/06/25 02:36:26;;;;;;;5.00;3.60;;;18.00;99.90;;;;;;5029703;28;20847;-41
2022/06/25 02:38:52;;;;;;;4.47;3.63;;;18.00;99.90;;;;;;5029269;28;20440;-43
2022/06/25 02:41:18;;;;;;;3.30;2.97;;;18.00;99.90;;;;;;5029894;28;20198;-41
2022/06/25 02:43:44;;;;;;;4.27;3.87;;;18.00;99.90;;;;;;5029360;28;20843;-41
2022/06/25 02:46:10;;;;;;;3.80;3.40;;;17.90;99.90;;;;;;5028855;28;20222;-44
2022/06/25 02:48:35;;;;;;;6.77;3.90;;;17.80;99.90;;;;;;5028772;28;20368;-42
2022/06/25 02:51:01;;;;;;;3.97;3.57;;;17.80;99.90;;;;;;5029745;28;20233;-40
2022/06/25 02:53:27;;;;;;;3.37;3.07;;;17.80;99.90;;;;;;5029377;28;20581;-41
2022/06/25 02:58:56;;;;;;;4.93;4.40;;;17.80;99.90;;;;;;5028602;28;20557;-40
2022/06/25 03:01:28;;;;;;;4.57;4.07;;;17.70;99.90;;;;;;5029296;28;20962;-41
2022/06/25 03:03:54;;;;;;;6.10;4.13;;;17.70;99.90;;;;;;5029354;28;20850;-43
2022/06/25 03:06:20;;;;;;;7.80;3.90;;;17.60;99.90;;;;;;5029238;28;20461;-41
2022/06/25 03:08:47;;;;;;;4.00;3.70;;;17.60;99.90;;;;;;5028181;28;20984;-41
2022/06/25 03:11:13;;;;;;;5.80;3.70;;;17.60;99.90;;;;;;5029393;28;20524;-40
2022/06/25 03:13:39;;;;;;;6.13;3.80;;;17.50;99.90;;;;;;5029280;28;20501;-42
2022/06/25 03:16:05;;;;;;;4.07;3.67;;;17.50;99.90;;;;;;5029223;28;20995;-41
2022/06/25 03:18:32;;;;;;;4.87;3.50;;;17.40;99.90;;;;;;5027042;28;20524;-42
2022/06/25 03:20:58;;;;;;;4.30;3.90;;;17.40;99.90;;;;;;5028754;28;20511;-40
2022/06/25 03:23:24;;;;;;;4.80;4.30;;;17.40;99.90;;;;;;5027427;28;20970;-42
2022/06/25 03:25:49;;;;;;;3.90;3.60;;;17.40;99.90;;;;;;5027602;28;20206;-41
2022/06/25 03:28:16;;;;;;;4.30;3.87;;;17.40;99.90;;;;;;5028316;28;20677;-40
2022/06/25 03:30:42;;;;;;;6.53;4.37;;;17.40;99.90;;;;;;5028652;28;20186;-41
2022/06/25 03:33:08;;;;;;;6.53;3.50;;;17.40;99.90;;;;;;5028975;28;20417;-41
2022/06/25 03:35:33;;;;;;;4.27;3.87;;;17.40;99.90;;;;;;5028589;28;20440;-41
2022/06/25 03:37:59;;;;;;;5.30;3.47;;;17.50;99.90;;;;;;5027253;28;20190;-42
2022/06/25 03:40:25;;;;;;;4.00;3.60;;;17.40;99.90;;;;;;5028661;28;20197;-40
2022/06/25 03:42:50;;;;;;;4.33;3.20;;;17.40;99.90;;;;;;5028467;28;20191;-41
2022/06/25 03:45:16;;;;;;;3.83;3.43;;;17.40;99.90;;;;;;5027755;28;20706;-41
2022/06/25 03:47:49;;;;;;;5.97;3.57;;;17.50;99.90;;;;;;5027977;28;20253;-41
2022/06/25 03:50:19;;;;;;;6.20;4.10;;;17.50;99.90;;;;;;5028935;28;20547;-42
2022/06/25 03:52:46;;;;;;;4.77;4.23;;;17.50;99.90;;;;;;5028145;28;20424;-41
2022/06/25 03:55:12;;;;;;;4.77;3.70;;;17.60;99.90;;;;;;5028351;28;20436;-40
2022/06/25 03:57:38;;;;;;;3.80;3.50;;;17.60;99.90;;;;;;5027561;28;20445;-41
2022/06/25 04:00:06;;;;;;;5.33;4.00;;;17.60;99.90;;;;;;5028325;28;20484;-40
2022/06/25 04:02:32;;;;;;;4.40;4.00;;;17.50;99.90;;;;;;5028014;28;20205;-42
2022/06/25 04:04:57;;;;;;;4.00;3.70;;;17.60;99.90;;;;;;5027916;28;20808;-42
2022/06/25 04:07:23;;;;;;;3.80;3.50;;;17.60;99.90;;;;;;5027701;28;20476;-41
2022/06/25 04:09:49;;;;;;;4.00;3.60;;;17.60;99.90;;;;;;5028295;28;20187;-39
2022/06/25 04:12:15;;;;;;;4.70;3.20;;;17.60;99.90;;;;;;5028489;28;20201;-40
2022/06/25 04:14:41;;;;;;;5.47;3.20;;;17.70;99.90;;;;;;5028172;28;20190;-40
2022/06/25 04:17:07;;;;;;;3.70;3.40;;;17.80;99.90;;;;;;5028077;28;20979;-43
2022/06/25 04:19:40;;;;;;;3.87;3.10;;;17.80;99.90;;;;;;5027913;28;20588;-40
2022/06/25 04:22:10;;;;;;;3.57;3.27;;;17.90;99.90;;;;;;5028205;28;21143;-40
2022/06/25 04:24:37;;;;;;;3.83;3.27;;;17.90;99.90;;;;;;5027930;28;20425;-41
2022/06/25 04:27:03;;;;;;;3.57;3.27;;;17.80;99.90;;;;;;5027714;28;20872;-40
2022/06/25 04:29:29;;;;;;;3.07;2.73;;;17.90;99.90;;;;;;5028017;28;20545;-40
2022/06/25 04:31:56;;;;;;;3.30;3.00;;;17.90;99.90;;;;;;5028184;28;20523;-43
2022/06/25 04:34:21;;;;;;;3.57;2.83;;;17.90;99.90;;;;;;5028099;28;20905;-40
2022/06/25 04:36:47;;;;;;;4.40;2.77;;;18.00;99.90;;;;;;5027653;28;20828;-40
2022/06/25 04:39:13;;;;;;;3.30;3.10;;;18.10;99.90;;;;;;5028142;28;20182;-43
2022/06/25 04:41:39;;;;;;;7.87;3.60;;;18.20;99.90;;;;;;5028949;28;20467;-41
2022/06/25 04:44:05;;;;;;;3.47;2.73;;;18.20;99.90;;;;;;5019144;28;20449;-41
2022/06/25 04:46:31;;;;;;;4.73;3.00;;;18.20;99.90;;;;;;5028457;28;20207;-40
2022/06/25 04:48:57;;;;;;;3.73;3.40;;;18.30;99.90;;;;;;5027503;28;20186;-40
2022/06/25 04:51:23;;;;;;;3.87;3.57;;;18.40;99.90;;;;;;5030768;28;20637;-41
2022/06/25 04:53:55;;;;;;;3.80;2.90;;;18.50;99.90;;;;;;5031714;28;20417;-45
2022/06/25 04:56:25;;;;;;;3.77;3.40;;;18.60;99.90;;;;;;5030536;28;20429;-43
2022/06/25 04:58:52;;;;;;;3.57;3.27;;;18.70;99.90;;;;;;5029484;28;20846;-42
2022/06/25 05:01:18;;;;;;;4.27;3.33;;;18.80;99.90;;;;;;5031656;28;20429;-42
2022/06/25 05:03:44;;;;;;;3.43;3.10;;;18.80;99.90;;;;;;5031524;28;20491;-40
2022/06/25 05:06:10;;;;;;;3.80;3.27;;;19.00;99.90;;;;;;5031586;28;20987;-40
2022/06/25 05:08:36;;;;;;;8.33;3.90;;;19.10;99.90;;;;;;5030612;28;20634;-42
2022/06/25 05:11:02;;;;;;;3.23;3.00;;;19.20;99.90;;;;;;5031592;28;20429;-40
2022/06/25 05:13:27;;;;;;;3.60;3.17;;;19.20;99.90;;;;;;5029996;28;20942;-39
2022/06/25 05:15:53;;;;;;;3.63;3.33;;;19.30;99.90;;;;;;5031184;28;20428;-42
2022/06/25 05:18:19;;;;;;;6.27;2.70;;;19.50;99.90;;;;;;5030478;28;20248;-41
2022/06/25 05:20:45;;;;;;;3.23;3.03;;;19.50;99.90;;;;;;5029879;28;20183;-42
2022/06/25 05:23:11;;;;;;;3.77;3.47;;;19.60;99.90;;;;;;5031296;28;20213;-40
2022/06/25 05:25:37;;;;;;;3.50;3.20;;;19.60;99.90;;;;;;5030950;28;20217;-40
2022/06/25 05:28:03;;;;;;;3.47;3.17;;;19.70;99.90;;;;;;5030838;28;20428;-42
2022/06/25 05:30:30;;;;;;;3.80;3.40;;;19.70;99.90;;;;;;5030628;28;20431;-40
2022/06/25 05:32:56;;;;;;;3.77;3.47;;;19.80;99.90;;;;;;5031178;28;20854;-42
2022/06/25 05:35:22;;;;;;;2.90;2.70;;;19.90;99.90;;;;;;5030991;28;20424;-40
2022/06/25 05:37:48;;;;;;;3.60;3.30;;;20.00;99.90;;;;;;5028895;28;20440;-40
2022/06/25 05:40:14;;;;;;;3.63;3.30;;;20.00;99.90;;;;;;5030566;28;20416;-40
2022/06/25 05:42:40;;;;;;;3.80;3.50;;;20.10;99.90;;;;;;5030640;28;20478;-40
2022/06/25 05:45:06;;;;;;;5.67;3.50;;;20.20;99.90;;;;;;5028990;28;20187;-39
2022/06/25 05:47:32;;;;;;;5.03;3.20;;;20.30;99.90;;;;;;5029688;28;20465;-40
2022/06/25 05:49:57;;;;;;;3.43;3.00;;;20.40;99.90;;;;;;5025865;28;20444;-41
2022/06/25 05:52:23;;;;;;;3.10;2.80;;;20.60;99.90;;;;;;5031633;28;20575;-41
2022/06/25 05:54:49;;;;;;;3.97;3.37;;;20.70;99.90;;;;;;5031544;28;20186;-43
2022/06/25 05:57:15;;;;;;;3.70;3.10;;;20.80;99.90;;;;;;5030119;28;20195;-43
2022/06/25 05:59:40;;;;;;;3.63;3.23;;;20.90;99.90;;;;;;5028773;28;20217;-40
2022/06/25 06:02:07;;;;;;;3.60;3.30;;;21.10;99.90;;;;;;5029771;28;20194;-39
2022/06/25 06:04:33;;;;;;;3.53;2.97;;;21.20;99.90;;;;;;5025828;28;20201;-40
2022/06/25 06:07:02;;;;;;;4.67;3.10;;;21.30;99.90;;;;;;5021498;28;20469;-42
2022/06/25 06:09:28;;;;;;;6.57;2.97;;;21.40;99.90;;;;;;5027072;28;20316;-40
2022/06/25 06:11:57;;;;;;;4.30;3.47;;;21.50;99.90;;;;;;5030200;28;20516;-41
2022/06/25 06:14:23;;;;;;;3.57;3.17;;;21.60;99.90;;;;;;5028684;28;20324;-42
2022/06/25 06:16:48;;;;;;;5.33;3.63;;;21.80;99.90;;;;;;5029721;28;20520;-41
2022/06/25 06:19:14;;;;;;;3.67;3.30;;;21.80;99.90;;;;;;5030020;28;20190;-40
2022/06/25 06:21:40;;;;;;;5.23;3.23;;;21.80;99.90;;;;;;5030110;28;20186;-41
2022/06/25 06:24:07;;;;;;;3.67;3.37;;;21.90;99.90;;;;;;5028710;28;20260;-40
2022/06/25 06:26:33;;;;;;;6.30;3.30;;;21.90;99.90;;;;;;5029453;28;20817;-40
2022/06/25 06:28:59;;;;;;;3.50;2.97;;;22.00;99.90;;;;;;5029635;28;20428;-39
2022/06/25 06:31:25;;;;;;;3.87;2.83;;;22.00;99.90;;;;;;5030090;28;20429;-41
2022/06/25 06:33:50;;;;;;;3.90;2.93;;;22.10;99.90;;;;;;5029816;28;20381;-40
2022/06/25 06:36:16;;;;;;;3.83;3.40;;;22.10;99.90;;;;;;5030023;28;20198;-42
2022/06/25 06:38:42;;;;;;;4.43;2.90;;;22.20;99.90;;;;;;5029319;28;20203;-40
2022/06/25 06:41:08;;;;;;;2.73;2.53;;;22.40;99.90;;;;;;5026494;28;20444;-41
2022/06/25 06:43:34;;;;;;;3.17;2.90;;;22.40;99.90;;;;;;5022455;28;20436;-40
2022/06/25 06:46:00;;;;;;;3.30;3.00;;;22.40;99.90;;;;;;5024296;28;20489;-42
2022/06/25 06:48:25;;;;;;;3.80;2.70;;;22.50;99.90;;;;;;5023083;28;20677;-41
2022/06/25 06:50:51;;;;;;;3.73;2.87;;;22.60;99.90;;;;;;5027204;28;20708;-42
2022/06/25 06:53:20;;;;;;;3.90;3.40;;;22.60;99.90;;;;;;5027421;28;20182;-40
2022/06/25 06:55:46;;;;;;;5.23;3.40;;;22.60;99.90;;;;;;5029304;28;20504;-43
2022/06/25 06:58:12;;;;;;;3.90;3.20;;;22.80;99.90;;;;;;5028735;28;20516;-43
2022/06/25 07:00:37;;;;;;;3.93;2.67;;;22.90;99.90;;;;;;5029374;28;20210;-45
2022/06/25 07:03:03;;;;;;;3.43;2.97;;;23.00;99.90;;;;;;5027974;28;20194;-41
2022/06/25 07:05:29;;;;;;;5.60;2.50;;;23.10;99.90;;;;;;5029441;28;20186;-40
2022/06/25 07:07:55;;;;;;;2.77;2.57;;;23.30;99.90;;;;;;5028332;28;20214;-40
2022/06/25 07:10:22;;;;;;;3.63;2.87;;;23.40;99.90;;;;;;5021681;28;20661;-40
2022/06/25 07:12:48;;;;;;;3.07;2.67;;;23.50;99.90;;;;;;5020244;28;20418;-43
2022/06/25 07:15:14;;;;;;;3.33;2.67;;;23.60;99.90;;;;;;5022552;28;20409;-41
2022/06/25 07:17:39;;;;;;;6.83;2.60;;;23.60;99.90;;;;;;5020971;28;20191;-41
2022/06/25 07:20:06;;;;;;;4.43;3.03;;;23.60;99.90;;;;;;5021809;28;20195;-41
2022/06/25 07:22:32;;;;;;;3.00;2.40;;;23.40;99.90;;;;;;5024766;28;20214;-40
2022/06/25 07:24:58;;;;;;;3.40;3.10;;;23.50;99.90;;;;;;5026025;28;20870;-41
2022/06/25 07:27:24;;;;;;;2.97;2.40;;;23.50;99.90;;;;;;5021949;28;20855;-42
2022/06/25 07:29:50;;;;;;;4.13;2.40;;;23.40;99.90;;;;;;5029744;28;20421;-40
2022/06/25 07:32:16;;;;;;;4.50;2.40;;;23.30;99.90;;;;;;5028802;28;20198;-40
2022/06/25 07:34:42;;;;;;;2.97;2.47;;;23.40;99.90;;;;;;5028459;28;20765;-41
2022/06/25 07:37:08;;;;;;;3.50;2.43;;;23.60;99.90;;;;;;5028019;28;20190;-41
2022/06/25 07:39:34;;;;;;;3.17;2.43;;;23.70;99.90;;;;;;5028278;28;20820;-41
2022/06/25 07:42:00;;;;;;;2.63;2.40;;;23.80;99.90;;;;;;5028501;28;20531;-40
2022/06/25 07:44:25;;;;;;;3.10;2.50;;;23.70;99.90;;;;;;5027040;28;20515;-41
2022/06/25 07:46:51;;;;;;;3.50;2.60;;;23.70;99.90;;;;;;5026305;28;20222;-41
2022/06/25 07:49:17;;;;;;;6.53;3.10;;;23.70;99.90;;;;;;5028671;28;20615;-40
2022/06/25 07:51:59;;;;;;;3.30;3.00;;;23.70;99.90;;;;;;5026274;28;20488;-42
2022/06/25 07:54:30;;;;;;;2.10;1.97;;;23.60;99.90;;;;;;5026802;28;20197;-41
2022/06/25 07:56:57;;;;;;;2.60;2.10;;;23.60;99.90;;;;;;5027790;28;20826;-41
2022/06/25 07:59:23;;;;;;;4.33;2.70;;;23.60;99.90;;;;;;5027966;28;20971;-41
2022/06/25 08:01:50;;;;;;;5.73;2.50;;;23.60;99.90;;;;;;5028008;28;20452;-42
2022/06/25 08:04:16;;;;;;;3.83;2.30;;;23.70;99.90;;;;;;5029911;28;20449;-43
2022/06/25 08:06:43;;;;;;;5.70;2.27;;;23.70;99.90;;;;;;5029068;28;21040;-42
2022/06/25 08:09:09;;;;;;;3.53;2.10;;;23.70;99.90;;;;;;5028644;28;20479;-41
2022/06/25 08:11:35;;;;;;;2.87;2.03;;;23.50;99.90;;;;;;5029747;28;20480;-41
2022/06/25 08:14:01;;;;;;;2.27;1.80;;;23.40;99.90;;;;;;5029959;28;20425;-41
2022/06/25 08:16:27;;;;;;;3.80;2.17;;;23.30;99.90;;;;;;5025306;28;20527;-41
2022/06/25 08:18:53;;;;;;;5.30;2.60;;;23.20;99.90;;;;;;5027705;28;20475;-41
2022/06/25 08:21:19;;;;;;;2.30;2.10;;;23.10;99.90;;;;;;5029537;28;20421;-41
2022/06/25 08:23:45;;;;;;;5.23;2.40;;;23.10;99.90;;;;;;5030019;28;20457;-41
2022/06/25 08:26:11;;;;;;;3.20;2.20;;;23.20;99.90;;;;;;5034544;28;20463;-42
2022/06/25 08:28:37;;;;;;;2.97;2.77;;;23.30;99.90;;;;;;5033119;28;20774;-42
2022/06/25 08:31:04;;;;;;;5.00;2.40;;;23.40;99.90;;;;;;5032659;28;20224;-42
2022/06/25 08:33:29;;;;;;;2.70;2.50;;;23.40;99.90;;;;;;5033594;28;20432;-40
2022/06/25 08:35:55;;;;;;;4.17;2.40;;;23.40;99.90;;;;;;5033420;28;20417;-41
2022/06/25 08:38:21;;;;;;;3.13;2.30;;;23.50;99.90;;;;;;5032898;28;20580;-41
2022/06/25 08:40:48;;;;;;;5.40;3.23;;;23.60;99.90;;;;;;5033871;28;20303;-40
2022/06/25 08:43:14;;;;;;;2.50;1.80;;;23.70;99.90;;;;;;5027788;28;20429;-39
2022/06/25 08:45:40;;;;;;;6.33;2.40;;;23.80;99.90;;;;;;5022589;28;20468;-40
2022/06/25 08:48:20;;;;;;;2.97;2.10;;;23.90;99.90;;;;;;5028928;28;20433;-39
2022/06/25 08:50:48;;;;;;;5.40;2.63;;;23.90;99.90;;;;;;5029768;28;20413;-42
2022/06/25 08:53:15;;;;;;;6.03;2.50;;;23.80;99.90;;;;;;5033438;28;20421;-38
2022/06/25 08:55:42;;;;;;;3.67;2.80;;;23.70;99.90;;;;;;5033297;28;20433;-39
2022/06/25 08:58:09;;;;;;;3.50;2.60;;;23.70;99.90;;;;;;5032519;28;20429;-40
2022/06/25 09:00:38;;;;;;;2.70;2.50;;;23.80;99.90;;;;;;5032983;28;20868;-41
2022/06/25 09:03:05;;;;;;;3.53;2.40;;;23.90;99.90;;;;;;5031511;28;20420;-39
2022/06/25 09:05:33;;;;;;;3.80;2.60;;;23.90;99.90;;;;;;5037457;28;20420;-40
2022/06/25 09:08:01;;;;;;;4.80;2.80;;;23.80;99.90;;;;;;5034750;28;20464;-39
2022/06/25 09:10:28;;;;;;;3.37;2.60;;;23.70;99.90;;;;;;5033048;28;20425;-39
2022/06/25 09:12:57;;;;;;;4.30;2.47;;;23.60;99.90;;;;;;5032962;28;20417;-40
2022/06/25 09:15:31;;;;;;;5.03;1.97;;;23.60;99.90;;;;;;5032842;28;20502;-40
2022/06/25 09:18:04;;;;;;;4.33;2.57;;;23.60;99.90;;;;;;5032278;28;20915;-41
2022/06/25 09:20:31;;;;;;;4.20;2.53;;;23.60;99.90;;;;;;5033055;28;20822;-40
2022/06/25 09:23:06;;;;;;;5.00;2.50;;;23.50;99.90;;;;;;5032713;28;20433;-41
2022/06/25 09:25:34;;;;;;;3.80;2.47;;;23.60;99.90;;;;;;5031704;28;20463;-39
2022/06/25 09:28:01;;;;;;;3.00;2.07;;;23.50;99.90;;;;;;5029545;28;20469;-41
2022/06/25 09:30:29;;;;;;;5.33;2.23;;;23.50;99.90;;;;;;5030969;28;20429;-41
2022/06/25 09:33:00;;;;;;;3.43;2.13;;;23.60;99.90;;;;;;5032599;28;20579;-42
2022/06/25 09:35:31;;;;;;;3.33;2.50;;;23.70;99.90;;;;;;5032060;28;20436;-41
2022/06/25 09:38:06;;;;;;;2.73;2.20;;;23.80;99.90;;;;;;5030505;28;20440;-40
2022/06/25 09:40:32;;;;;;;3.00;2.40;;;23.80;99.90;;;;;;5031075;28;20428;-39
2022/06/25 09:42:58;;;;;;;2.57;2.27;;;23.70;99.90;;;;;;5032376;28;20433;-41
2022/06/25 09:45:24;;;;;;;2.83;2.00;;;23.50;99.90;;;;;;5031130;28;20425;-40
2022/06/25 09:47:50;;;;;;;2.60;2.40;;;23.40;99.90;;;;;;5031887;28;21063;-43
2022/06/25 09:50:19;;;;;;;2.43;2.17;;;23.40;99.90;;;;;;5032437;28;20511;-40
2022/06/25 09:52:56;;;;;;;3.00;2.23;;;23.50;99.90;;;;;;5032107;28;20277;-39
2022/06/25 09:55:27;;;;;;;5.23;2.57;;;23.60;99.90;;;;;;5032153;28;20479;-39
2022/06/25 09:57:53;;;;;;;4.20;2.13;;;23.80;99.90;;;;;;5031533;28;20452;-40
2022/06/25 10:00:22;;;;;;;5.80;2.63;;;24.00;99.90;;;;;;5031999;28;20845;-39
2022/06/25 10:02:49;;;;;;;3.60;2.93;;;24.00;99.90;;;;;;5032098;28;20440;-39
2022/06/25 10:05:18;;;;;;;2.50;1.80;;;24.00;99.90;;;;;;5032088;28;20459;-39
2022/06/25 10:08:04;;;;;;;2.47;2.27;;;23.90;99.90;;;;;;5031275;28;20459;-38
2022/06/25 10:10:43;;;;;;;4.50;2.20;;;23.80;99.90;;;;;;5032009;28;20421;-39
2022/06/25 10:13:09;;;;;;;2.30;2.10;;;23.80;99.90;;;;;;5031880;28;20425;-40
2022/06/25 10:15:37;;;;;;;3.20;2.50;;;23.70;99.90;;;;;;5030663;28;20429;-38
2022/06/25 10:18:09;;;;;;;2.70;2.43;;;23.80;99.90;;;;;;5031078;28;20456;-39
2022/06/25 10:20:36;;;;;;;3.37;2.20;;;24.00;99.90;;;;;;5028875;28;20486;-38
2022/06/25 10:23:04;;;;;;;2.67;2.47;;;24.10;99.90;;;;;;5025588;28;21070;-40
2022/06/25 10:25:31;;;;;;;2.40;2.20;;;24.10;99.90;;;;;;5030814;28;20453;-41
2022/06/25 10:28:11;;;;;;;1.83;1.73;;;24.00;99.90;;;;;;5029839;28;20472;-41
2022/06/25 10:30:58;;;;;;;2.47;2.10;;;24.00;99.90;;;;;;5030630;28;20510;-40
2022/06/25 10:33:29;;;;;;;4.90;2.47;;;24.00;99.90;;;;;;5031698;28;20441;-40
2022/06/25 10:36:04;;;;;;;3.03;2.33;;;24.00;99.90;;;;;;5030241;28;20421;-41
2022/06/25 10:38:30;;;;;;;3.00;2.27;;;24.00;99.90;;;;;;5030776;28;20412;-38
2022/06/25 10:43:55;;;;;;;2.23;2.00;;;24.00;99.90;;;;;;5031219;28;20432;-39
2022/06/25 10:46:26;;;;;;;3.20;2.37;;;24.00;99.90;;;;;;5031160;28;20977;-39
2022/06/25 10:48:55;;;;;;;4.60;2.53;;;23.80;99.90;;;;;;5030054;28;20456;-39
2022/06/25 10:51:32;;;;;;;3.17;2.50;;;23.80;99.90;;;;;;5030982;28;20436;-38
2022/06/25 10:53:59;;;;;;;2.30;2.10;;;23.80;99.90;;;;;;5030865;28;20531;-38
2022/06/25 10:56:25;;;;;;;4.07;2.50;;;23.70;99.90;;;;;;5031192;28;20947;-39
2022/06/25 10:58:52;;;;;;;2.80;2.47;;;23.80;99.90;;;;;;5028795;28;20436;-38
2022/06/25 11:01:23;;;;;;;3.13;2.40;;;23.80;99.90;;;;;;5031129;28;20520;-39
2022/06/25 11:03:54;;;;;;;4.30;2.33;;;24.00;99.90;;;;;;5017937;28;20421;-38
2022/06/25 11:06:23;;;;;;;2.30;1.80;;;24.20;99.90;;;;;;5030786;28;20523;-38
2022/06/25 11:08:50;;;;;;;2.50;2.30;;;24.40;99.90;;;;;;5030121;28;20413;-38
2022/06/25 11:11:27;;;;;;;3.33;2.50;;;24.50;99.70;;;;;;5030814;28;20429;-40
2022/06/25 11:13:54;;;;;;;6.33;2.30;;;24.50;98.30;;;;;;5030723;28;20467;-38
2022/06/25 11:16:20;;;;;;;5.23;2.50;;;24.60;99.30;;;;;;5030524;28;20425;-38
2022/06/25 11:18:54;;;;;;;3.70;2.77;;;24.70;99.60;;;;;;5030192;28;20754;-38
2022/06/25 11:21:36;;;;;;;2.37;2.17;;;24.70;99.10;;;;;;5030548;28;20460;-41
2022/06/25 11:24:14;;;;;;;2.77;2.30;;;24.60;98.50;;;;;;5030621;28;20459;-39
2022/06/25 11:29:32;;;;;;;3.20;2.07;;;24.50;99.80;;;;;;5030555;28;20508;-38
2022/06/25 11:31:58;;;;;;;3.80;2.33;;;24.50;99.80;;;;;;5030591;28;20425;-38
2022/06/25 11:34:26;;;;;;;2.93;2.37;;;24.40;99.90;;;;;;5030341;28;20478;-40
2022/06/25 11:37:01;;;;;;;4.57;2.37;;;24.30;99.90;;;;;;5029778;28;20439;-39
2022/06/25 11:39:29;;;;;;;2.60;2.40;;;24.20;99.90;;;;;;5030157;28;20445;-39
2022/06/25 11:41:55;;;;;;;3.27;2.63;;;24.20;99.90;;;;;;5030273;28;20909;-38
2022/06/25 11:44:21;;;;;;;5.20;2.70;;;24.10;99.90;;;;;;5028873;28;20531;-38
2022/06/25 11:46:49;;;;;;;2.70;2.50;;;24.00;99.90;;;;;;5029453;28;20913;-38
2022/06/25 11:49:16;;;;;;;2.60;2.30;;;24.00;99.90;;;;;;5030138;28;20436;-38
2022/06/25 11:51:46;;;;;;;2.90;2.60;;;24.10;99.90;;;;;;5029954;28;20460;-38
2022/06/25 11:54:13;;;;;;;7.53;2.70;;;24.20;99.90;;;;;;5028936;28;20413;-38
2022/06/25 11:56:53;;;;;;;3.70;3.00;;;24.30;99.90;;;;;;5029772;28;20425;-38
2022/06/25 11:59:27;;;;;;;2.80;2.20;;;24.30;99.80;;;;;;5029476;28;20443;-38
2022/06/25 12:01:54;;;;;;;2.33;2.13;;;24.30;99.90;;;;;;5030133;28;20424;-38
2022/06/25 12:04:20;;;;;;;3.13;2.40;;;24.30;99.90;;;;;;5029634;28;20421;-40
2022/06/25 12:06:47;;;;;;;2.13;2.00;;;24.20;99.90;;;;;;5029231;28;20579;-39
2022/06/25 12:09:17;;;;;;;2.90;1.97;;;24.20;99.70;;;;;;5029767;28;20417;-38
2022/06/25 12:11:51;;;;;;;2.63;2.30;;;24.20;99.80;;;;;;5030045;28;20769;-38
2022/06/25 12:14:22;;;;;;;3.60;2.33;;;24.20;99.80;;;;;;5029654;28;20463;-38
2022/06/25 12:16:49;;;;;;;2.40;2.13;;;24.20;99.90;;;;;;5029104;28;20439;-39
2022/06/25 12:19:16;;;;;;;5.33;2.37;;;24.20;99.70;;;;;;5029673;28;20571;-39
2022/06/25 12:21:42;;;;;;;3.33;2.53;;;24.30;99.90;;;;;;5029686;28;20425;-38
2022/06/25 12:24:16;;;;;;;5.87;2.40;;;24.40;99.60;;;;;;5029708;28;20528;-38
2022/06/25 12:26:50;;;;;;;2.73;2.53;;;24.50;99.50;;;;;;5028018;28;20465;-38
2022/06/25 12:29:20;;;;;;;4.30;2.40;;;24.50;99.70;;;;;;5029519;28;20971;-39
2022/06/25 12:31:55;;;;;;;2.33;2.13;;;24.40;99.30;;;;;;5029605;28;20432;-38
2022/06/25 12:34:21;;;;;;;2.60;2.40;;;24.40;99.80;;;;;;5029705;28;20751;-39
2022/06/25 12:36:49;;;;;;;3.50;2.57;;;24.40;99.60;;;;;;5028989;28;20559;-39
2022/06/25 12:39:34;;;;;;;3.83;2.73;;;24.30;99.50;;;;;;5029555;28;20425;-39
2022/06/25 12:42:09;;;;;;;3.10;2.50;;;24.30;99.90;;;;;;5029567;28;20475;-39
2022/06/25 12:44:37;;;;;;;2.40;2.20;;;24.30;99.90;;;;;;5028135;28;20424;-38
2022/06/25 12:47:11;;;;;;;2.67;2.47;;;24.30;99.90;;;;;;5028846;28;20987;-39
2022/06/25 12:49:52;;;;;;;2.33;1.97;;;24.40;99.70;;;;;;5029438;28;20444;-39
2022/06/25 12:52:24;;;;;;;4.00;2.20;;;24.40;99.20;;;;;;5029321;28;20433;-39
2022/06/25 12:54:52;;;;;;;2.80;2.20;;;24.50;99.20;;;;;;5029713;28;20421;-38
2022/06/25 12:57:30;;;;;;;4.47;2.40;;;24.80;99.00;;;;;;5028838;28;20781;-38
2022/06/25 12:59:58;;;;;;;5.73;2.80;;;25.00;99.50;;;;;;5029378;28;21078;-40
2022/06/25 13:02:24;;;;;;;5.43;2.33;;;25.10;98.40;;;;;;5029130;28;20429;-40
2022/06/25 13:04:50;;;;;;;3.30;2.07;;;25.10;96.80;;;;;;5029256;28;20431;-39
2022/06/25 13:07:17;;;;;;;2.30;2.10;;;25.00;96.80;;;;;;5027471;28;20463;-38